Time;durP1;ratioP1;P1;durP2;ratioP2;P2;SDS_P1;SDS_P2;PMS_P1;PMS_P2;Temp;Humidity;BMP_temperature;BMP_pressure;BME280_temperature;BME280_humidity;BME280_pressure;Samples;Min_cycle;Max_cycle;Signal;HPM_P1;HPM_P2
2021/05/27 00:00:55;;;;;;;5.50;5.00;;;;;21.00;100204.00;;;;2047216;28;20221;-50
2021/05/27 00:01:55;;;;;;;5.57;5.07;;;;;20.90;100207.00;;;;2046340;28;20260;-51
2021/05/27 00:02:55;;;;;;;5.17;4.70;;;;;21.00;100216.00;;;;2047272;28;20733;-54
2021/05/27 00:03:56;;;;;;;5.83;5.33;;;;;21.00;100210.00;;;;2047355;28;20689;-54
2021/05/27 00:04:56;;;;;;;5.27;4.73;;;;;21.00;100216.00;;;;2047512;28;20315;-54
2021/05/27 00:05:56;;;;;;;5.07;4.57;;;;;21.00;100214.00;;;;2047476;28;20233;-54
2021/05/27 00:06:57;;;;;;;5.20;4.77;;;;;21.00;100216.00;;;;2043975;28;20690;-49
2021/05/27 00:07:58;;;;;;;4.93;4.53;;;;;20.90;100218.00;;;;2046719;28;20613;-52
2021/05/27 00:08:58;;;;;;;5.55;5.05;;;;;21.00;100213.00;;;;2048896;28;20874;-53
2021/05/27 00:09:58;;;;;;;5.60;5.10;;;;;20.90;100218.00;;;;2049242;28;20220;-51
2021/05/27 00:10:59;;;;;;;5.27;4.80;;;;;20.90;100216.00;;;;2049634;28;20215;-53
2021/05/27 00:11:59;;;;;;;5.20;4.80;;;;;20.90;100219.00;;;;2046947;28;20221;-56
2021/05/27 00:13:00;;;;;;;5.00;4.50;;;;;20.90;100214.00;;;;2047238;28;20264;-53
2021/05/27 00:14:00;;;;;;;5.33;4.70;;;;;20.90;100217.00;;;;2047355;28;20216;-55
2021/05/27 00:15:01;;;;;;;4.93;4.20;;;;;20.90;100217.00;;;;2047399;28;20292;-55
2021/05/27 00:16:01;;;;;;;6.07;5.40;;;;;20.90;100213.00;;;;2047263;29;20217;-53
2021/05/27 00:17:02;;;;;;;5.13;4.73;;;;;20.90;100212.00;;;;2047193;28;20495;-54
2021/05/27 00:18:02;;;;;;;5.30;4.90;;;;;20.90;100217.00;;;;2047205;28;21097;-54
2021/05/27 00:19:03;;;;;;;5.47;4.87;;;;;20.90;100210.00;;;;2046655;28;20311;-53
2021/05/27 00:20:04;;;;;;;4.80;4.27;;;;;20.90;100215.00;;;;2046362;28;21219;-51
2021/05/27 00:21:04;;;;;;;5.28;4.72;;;;;20.90;100219.00;;;;2043682;28;20303;-54
2021/05/27 00:22:05;;;;;;;4.40;4.00;;;;;20.90;100209.00;;;;2046610;28;20209;-52
2021/05/27 00:23:05;;;;;;;4.70;4.30;;;;;20.90;100218.00;;;;2046889;28;20213;-54
2021/05/27 00:24:06;;;;;;;4.67;4.30;;;;;20.90;100215.00;;;;2046780;28;20217;-52
2021/05/27 00:25:07;;;;;;;4.83;4.43;;;;;20.90;100211.00;;;;2046198;28;20601;-53
2021/05/27 00:26:07;;;;;;;4.72;4.20;;;;;20.90;100213.00;;;;2038577;29;21032;-50
2021/05/27 00:27:08;;;;;;;5.53;5.03;;;;;20.90;100206.00;;;;2038596;29;20217;-52
2021/05/27 00:28:08;;;;;;;4.80;4.27;;;;;20.90;100206.00;;;;2047051;28;20223;-54
2021/05/27 00:29:09;;;;;;;4.83;4.43;;;;;20.90;100220.00;;;;2053134;28;20573;-54
2021/05/27 00:30:09;;;;;;;5.57;4.60;;;;;20.90;100211.00;;;;2055042;28;20584;-53
2021/05/27 00:31:10;;;;;;;4.40;4.10;;;;;20.90;100217.00;;;;2051774;28;20220;-52
2021/05/27 00:32:10;;;;;;;4.57;4.17;;;;;20.90;100211.00;;;;2053761;28;20518;-53
2021/05/27 00:33:10;;;;;;;4.40;3.97;;;;;20.90;100210.00;;;;2054035;28;20299;-47
2021/05/27 00:34:11;;;;;;;4.90;4.03;;;;;20.90;100197.00;;;;2054782;28;20212;-50
2021/05/27 00:35:11;;;;;;;4.67;4.20;;;;;20.90;100210.00;;;;2054477;28;20300;-53
2021/05/27 00:36:12;;;;;;;4.23;3.83;;;;;20.90;100211.00;;;;2052827;28;20219;-50
2021/05/27 00:37:12;;;;;;;4.57;4.17;;;;;20.90;100207.00;;;;2054506;28;20216;-52
2021/05/27 00:38:12;;;;;;;3.80;3.50;;;;;20.90;100205.00;;;;2054537;28;20215;-54
2021/05/27 00:39:13;;;;;;;4.30;3.90;;;;;20.80;100218.00;;;;2045465;28;20221;-54
2021/05/27 00:40:14;;;;;;;3.60;3.30;;;;;20.90;100212.00;;;;2035971;29;20817;-54
2021/05/27 00:41:14;;;;;;;5.25;4.25;;;;;20.80;100204.00;;;;2037194;29;20245;-52
2021/05/27 00:42:15;;;;;;;4.53;4.13;;;;;20.80;100209.00;;;;2046058;28;20217;-53
2021/05/27 00:43:15;;;;;;;4.13;3.83;;;;;20.90;100217.00;;;;2046128;28;20205;-53
2021/05/27 00:44:26;;;;;;;4.33;3.93;;;;;20.90;100204.00;;;;2046385;28;20221;-54
2021/05/27 00:45:26;;;;;;;4.65;4.25;;;;;20.80;100202.00;;;;2051717;28;20226;-51
2021/05/27 00:46:26;;;;;;;4.00;3.60;;;;;20.80;100208.00;;;;2051721;28;20223;-52
2021/05/27 00:47:27;;;;;;;4.47;4.07;;;;;20.80;100215.00;;;;2054536;28;20223;-54
2021/05/27 00:49:46;;;;;;;4.50;4.10;;;;;20.80;100219.00;;;;2054262;28;20219;-54
2021/05/27 00:50:46;;;;;;;4.00;3.60;;;;;20.80;100220.00;;;;2049230;28;20225;-53
2021/05/27 00:51:47;;;;;;;4.47;4.07;;;;;20.80;100221.00;;;;2044860;28;20217;-51
2021/05/27 00:52:51;;;;;;;4.43;4.07;;;;;20.80;100217.00;;;;2045139;29;20271;-53
2021/05/27 00:53:51;;;;;;;4.68;4.28;;;;;20.80;100215.00;;;;2049078;28;20494;-52
2021/05/27 00:54:53;;;;;;;4.10;3.80;;;;;20.80;100218.00;;;;2045394;29;20297;-54
2021/05/27 00:55:54;;;;;;;4.70;4.20;;;;;20.80;100213.00;;;;2038280;29;20221;-50
2021/05/27 00:56:55;;;;;;;4.05;3.65;;;;;20.80;100217.00;;;;2046315;28;20276;-52
2021/05/27 00:57:55;;;;;;;5.17;4.20;;;;;20.80;100212.00;;;;2045988;29;20359;-53
2021/05/27 00:58:55;;;;;;;4.30;4.00;;;;;20.80;100217.00;;;;2043812;28;20224;-53
2021/05/27 00:59:56;;;;;;;4.10;3.80;;;;;20.80;100207.00;;;;2047939;28;20204;-54
2021/05/27 01:00:56;;;;;;;4.67;4.27;;;;;20.80;100219.00;;;;2046588;28;20209;-54
2021/05/27 01:01:56;;;;;;;4.23;3.83;;;;;20.80;100215.00;;;;2044692;28;20598;-53
2021/05/27 01:02:57;;;;;;;4.80;4.40;;;;;20.80;100221.00;;;;2047737;28;20218;-53
2021/05/27 01:03:57;;;;;;;5.53;4.70;;;;;20.80;100215.00;;;;2046349;28;20224;-54
2021/05/27 01:04:57;;;;;;;4.73;4.33;;;;;20.80;100215.00;;;;2049668;28;20233;-54
2021/05/27 01:05:58;;;;;;;4.87;4.37;;;;;20.80;100216.00;;;;2054391;28;20247;-52
2021/05/27 01:06:58;;;;;;;5.07;4.63;;;;;20.80;100222.00;;;;2054477;28;20311;-53
2021/05/27 01:07:58;;;;;;;5.20;4.80;;;;;20.80;100212.00;;;;2054230;28;20224;-49
2021/05/27 01:09:00;;;;;;;5.10;4.70;;;;;20.80;100212.00;;;;2054193;28;20270;-50
2021/05/27 01:10:00;;;;;;;5.32;4.93;;;;;20.80;100218.00;;;;2037859;29;20305;-54
2021/05/27 01:11:00;;;;;;;5.10;4.70;;;;;20.80;100212.00;;;;2036792;29;20246;-54
2021/05/27 01:12:01;;;;;;;5.10;4.70;;;;;20.80;100213.00;;;;2043589;28;20755;-50
2021/05/27 01:13:01;;;;;;;5.30;4.90;;;;;20.80;100213.00;;;;2053299;28;20224;-52
2021/05/27 01:15:38;;;;;;;5.20;4.80;;;;;20.70;100208.00;;;;2054235;28;20220;-54
2021/05/27 01:16:39;;;;;;;5.30;4.80;;;;;20.80;100211.00;;;;2054186;28;20212;-53
2021/05/27 01:17:39;;;;;;;5.47;5.00;;;;;20.80;100215.00;;;;2054204;28;20220;-50
2021/05/27 01:18:39;;;;;;;5.60;5.10;;;;;20.80;100227.00;;;;2054483;28;20219;-52
2021/05/27 01:19:40;;;;;;;5.13;4.73;;;;;20.80;100223.00;;;;2054174;28;20239;-54
2021/05/27 01:20:45;;;;;;;5.03;4.63;;;;;20.80;100221.00;;;;2053856;28;20223;-52
2021/05/27 01:21:45;;;;;;;6.25;5.75;;;;;20.80;100213.00;;;;2046148;28;20251;-52
2021/05/27 01:22:45;;;;;;;6.07;5.47;;;;;20.80;100218.00;;;;2037525;29;20225;-53
2021/05/27 01:23:46;;;;;;;6.67;6.00;;;;;20.80;100214.00;;;;2037703;29;20719;-53
2021/05/27 01:24:50;;;;;;;5.80;5.40;;;;;20.80;100217.00;;;;2046050;28;20259;-54
2021/05/27 01:25:52;;;;;;;6.15;5.60;;;;;20.80;100228.00;;;;2046224;28;20259;-54
2021/05/27 01:26:52;;;;;;;6.50;5.90;;;;;20.80;100234.00;;;;2043990;28;20814;-53
2021/05/27 01:27:53;;;;;;;6.53;5.93;;;;;20.80;100219.00;;;;2046123;29;20225;-52
2021/05/27 01:28:53;;;;;;;6.40;5.90;;;;;20.80;100222.00;;;;2046092;28;20773;-50
2021/05/27 01:29:54;;;;;;;6.70;6.10;;;;;20.80;100224.00;;;;2047754;28;20323;-53
2021/05/27 01:30:54;;;;;;;6.33;5.73;;;;;20.80;100222.00;;;;2049338;28;20224;-53
2021/05/27 01:31:57;;;;;;;6.40;5.90;;;;;20.70;100222.00;;;;2048142;28;20586;-53
2021/05/27 01:32:57;;;;;;;7.10;5.90;;;;;20.70;100227.00;;;;2046432;28;20251;-50
2021/05/27 01:33:58;;;;;;;6.00;5.50;;;;;20.70;100228.00;;;;2054096;28;20258;-51
2021/05/27 01:34:58;;;;;;;6.33;5.73;;;;;20.70;100212.00;;;;2053300;28;20216;-54
2021/05/27 01:36:00;;;;;;;6.80;6.20;;;;;20.80;100218.00;;;;2054316;28;20220;-50
2021/05/27 01:37:00;;;;;;;6.32;5.82;;;;;20.70;100211.00;;;;2051587;28;20219;-54
2021/05/27 01:38:17;;;;;;;7.80;7.03;;;;;20.70;100214.00;;;;2054242;28;20585;-54
2021/05/27 01:39:18;;;;;;;6.93;6.32;;;;;20.70;100224.00;;;;2044653;29;20311;-52
2021/05/27 01:40:20;;;;;;;6.23;5.83;;;;;20.70;100225.00;;;;2047683;28;20633;-53
2021/05/27 01:41:20;;;;;;;7.60;7.00;;;;;20.80;100218.00;;;;2047603;28;20748;-52
2021/05/27 01:42:22;;;;;;;6.70;6.10;;;;;20.80;100224.00;;;;2045713;28;20279;-56
2021/05/27 01:43:22;;;;;;;6.68;6.10;;;;;20.70;100212.00;;;;2045548;28;20225;-51
2021/05/27 01:44:23;;;;;;;6.47;5.97;;;;;20.70;100224.00;;;;2045505;28;20225;-51
2021/05/27 01:45:23;;;;;;;6.10;5.60;;;;;20.70;100222.00;;;;2046104;28;20221;-52
2021/05/27 01:46:24;;;;;;;6.67;6.10;;;;;20.70;100224.00;;;;2035572;29;20225;-52
2021/05/27 01:47:24;;;;;;;6.90;6.30;;;;;20.70;100218.00;;;;2037484;29;20225;-49
2021/05/27 01:48:24;;;;;;;6.93;6.27;;;;;20.70;100215.00;;;;2046207;28;20212;-53
2021/05/27 01:49:25;;;;;;;6.50;5.90;;;;;20.70;100220.00;;;;2045935;28;20225;-53
2021/05/27 01:50:25;;;;;;;6.90;6.20;;;;;20.70;100224.00;;;;2045819;28;20209;-54
2021/05/27 01:51:25;;;;;;;6.57;6.00;;;;;20.70;100224.00;;;;2045063;28;20201;-54
2021/05/27 01:52:26;;;;;;;6.77;6.27;;;;;20.70;100214.00;;;;2045040;29;20220;-54
2021/05/27 01:53:26;;;;;;;6.63;6.10;;;;;20.70;100220.00;;;;2046102;29;20205;-51
2021/05/27 01:54:26;;;;;;;6.57;6.07;;;;;20.70;100211.00;;;;2037553;29;20343;-53
2021/05/27 01:55:27;;;;;;;6.30;5.80;;;;;20.70;100221.00;;;;2037542;29;20202;-54
2021/05/27 01:56:27;;;;;;;5.67;5.20;;;;;20.70;100223.00;;;;2043983;28;20208;-54
2021/05/27 01:57:28;;;;;;;5.73;5.23;;;;;20.70;100215.00;;;;2046189;28;20303;-54
2021/05/27 01:58:28;;;;;;;6.27;5.70;;;;;20.70;100222.00;;;;2046415;28;20705;-51
2021/05/27 01:59:28;;;;;;;5.77;5.37;;;;;20.70;100219.00;;;;2046186;29;20641;-50
2021/05/27 02:00:29;;;;;;;5.70;5.30;;;;;20.70;100226.00;;;;2049032;28;20209;-52
2021/05/27 02:01:30;;;;;;;5.73;5.30;;;;;20.70;100221.00;;;;2047208;28;20216;-53
2021/05/27 02:02:30;;;;;;;6.17;5.73;;;;;20.70;100217.00;;;;2047794;28;21067;-54
2021/05/27 02:03:30;;;;;;;6.33;5.70;;;;;20.50;100226.00;;;;2046676;28;20205;-52
2021/05/27 02:04:31;;;;;;;5.90;5.30;;;;;20.70;100222.00;;;;2046524;28;20212;-50
2021/05/27 02:05:31;;;;;;;5.40;5.00;;;;;20.70;100231.00;;;;2046377;28;20698;-52
2021/05/27 02:06:31;;;;;;;5.60;5.20;;;;;20.70;100230.00;;;;2046198;28;20621;-54
2021/05/27 02:07:32;;;;;;;5.53;5.13;;;;;20.70;100239.00;;;;2045942;28;20270;-54
2021/05/27 02:08:32;;;;;;;5.87;5.40;;;;;20.70;100220.00;;;;2053426;28;20688;-54
2021/05/27 02:09:32;;;;;;;6.03;5.63;;;;;20.70;100225.00;;;;2053504;28;20238;-49
2021/05/27 02:10:33;;;;;;;6.47;5.90;;;;;20.60;100217.00;;;;2053914;28;20271;-49
2021/05/27 02:11:33;;;;;;;5.23;4.83;;;;;20.70;100226.00;;;;2053000;28;20227;-54
2021/05/27 02:12:34;;;;;;;5.50;5.10;;;;;20.70;100226.00;;;;2053459;28;20249;-54
2021/05/27 02:13:34;;;;;;;5.47;5.07;;;;;20.70;100225.00;;;;2045248;29;20613;-53
2021/05/27 02:14:35;;;;;;;5.03;4.63;;;;;20.70;100222.00;;;;2045168;29;20224;-50
2021/05/27 02:15:36;;;;;;;4.40;4.03;;;;;20.70;100232.00;;;;2053865;28;20220;-53
2021/05/27 02:16:37;;;;;;;4.88;4.47;;;;;20.70;100230.00;;;;2054156;28;20223;-49
2021/05/27 02:17:38;;;;;;;8.20;5.37;;;;;20.70;100229.00;;;;2046907;28;20304;-54
2021/05/27 02:18:38;;;;;;;4.80;4.40;;;;;20.70;100228.00;;;;2053221;28;20837;-54
2021/05/27 02:19:39;;;;;;;4.63;4.33;;;;;20.70;100220.00;;;;2053634;28;20306;-54
2021/05/27 02:20:39;;;;;;;5.93;5.43;;;;;20.70;100226.00;;;;2049677;28;20216;-49
2021/05/27 02:21:39;;;;;;;5.20;4.73;;;;;20.70;100224.00;;;;2045204;28;20316;-52
2021/05/27 02:22:40;;;;;;;5.43;5.03;;;;;20.70;100234.00;;;;2045802;28;20295;-53
2021/05/27 02:23:40;;;;;;;5.40;5.00;;;;;20.70;100233.00;;;;2045464;28;20223;-53
2021/05/27 02:24:41;;;;;;;5.30;4.80;;;;;20.70;100224.00;;;;2045122;29;20213;-53
2021/05/27 02:25:41;;;;;;;5.20;4.80;;;;;20.70;100223.00;;;;2046146;28;20224;-51
2021/05/27 02:26:41;;;;;;;4.73;4.43;;;;;20.70;100234.00;;;;2045839;28;20221;-51
2021/05/27 02:27:42;;;;;;;4.83;4.53;;;;;20.70;100224.00;;;;2048673;28;20220;-53
2021/05/27 02:28:42;;;;;;;5.90;4.80;;;;;20.70;100238.00;;;;2053794;28;20223;-54
2021/05/27 02:29:42;;;;;;;4.10;3.80;;;;;20.70;100233.00;;;;2053262;28;20314;-54
2021/05/27 02:30:43;;;;;;;5.30;4.80;;;;;20.60;100232.00;;;;2046519;28;20243;-52
2021/05/27 02:31:43;;;;;;;4.80;4.40;;;;;20.70;100228.00;;;;2042763;28;21061;-48
2021/05/27 02:32:43;;;;;;;5.03;4.30;;;;;20.60;100233.00;;;;2045649;28;20228;-50
2021/05/27 02:33:44;;;;;;;4.73;4.33;;;;;20.60;100236.00;;;;2045736;28;20225;-50
2021/05/27 02:34:44;;;;;;;4.97;4.57;;;;;20.60;100240.00;;;;2047418;28;20217;-52
2021/05/27 02:35:45;;;;;;;4.27;3.93;;;;;20.70;100227.00;;;;2053416;28;20227;-52
2021/05/27 02:36:45;;;;;;;5.13;4.73;;;;;20.70;100239.00;;;;2053744;28;24917;-53
2021/05/27 02:37:46;;;;;;;4.30;3.97;;;;;20.70;100226.00;;;;2053471;28;20714;-50
2021/05/27 02:38:46;;;;;;;5.60;5.10;;;;;20.60;100240.00;;;;2053411;28;20310;-54
2021/05/27 02:39:46;;;;;;;4.50;4.10;;;;;20.70;100240.00;;;;2054347;28;20216;-54
2021/05/27 02:40:47;;;;;;;4.23;3.93;;;;;20.70;100242.00;;;;2054133;28;20226;-53
2021/05/27 02:41:47;;;;;;;4.67;4.27;;;;;20.60;100239.00;;;;2053127;28;20228;-52
2021/05/27 02:42:47;;;;;;;5.03;4.63;;;;;20.60;100239.00;;;;2045803;29;20694;-53
2021/05/27 02:43:48;;;;;;;4.67;4.37;;;;;20.60;100242.00;;;;2046242;28;20603;-51
2021/05/27 02:44:48;;;;;;;4.83;4.30;;;;;20.60;100232.00;;;;2046093;28;20594;-53
2021/05/27 02:45:48;;;;;;;5.30;4.87;;;;;20.70;100230.00;;;;2046362;28;20701;-52
2021/05/27 02:46:49;;;;;;;4.50;4.10;;;;;20.60;100239.00;;;;2043893;28;20208;-54
2021/05/27 02:47:49;;;;;;;5.63;5.10;;;;;20.70;100246.00;;;;2046101;28;20220;-51
2021/05/27 02:48:50;;;;;;;5.10;4.60;;;;;20.60;100229.00;;;;2046335;28;20221;-54
2021/05/27 02:49:50;;;;;;;4.40;4.10;;;;;20.60;100230.00;;;;2046107;29;20220;-52
2021/05/27 02:50:50;;;;;;;4.47;4.17;;;;;20.60;100240.00;;;;2046315;28;20240;-48
2021/05/27 02:51:51;;;;;;;4.43;4.03;;;;;20.60;100238.00;;;;2040632;28;20558;-53
2021/05/27 02:52:51;;;;;;;4.83;4.50;;;;;20.60;100246.00;;;;2045288;28;20366;-52
2021/05/27 02:53:51;;;;;;;4.73;4.33;;;;;20.60;100245.00;;;;2046180;28;20326;-53
2021/05/27 02:54:52;;;;;;;4.83;4.43;;;;;20.40;100248.00;;;;2046683;28;20220;-50
2021/05/27 02:55:52;;;;;;;5.00;4.17;;;;;20.60;100233.00;;;;2054225;28;20230;-52
2021/05/27 02:56:57;;;;;;;4.93;4.40;;;;;20.60;100238.00;;;;2054196;28;20227;-53
2021/05/27 02:57:57;;;;;;;4.63;4.22;;;;;20.60;100245.00;;;;2054206;28;20216;-54
2021/05/27 02:58:58;;;;;;;4.60;4.23;;;;;20.60;100241.00;;;;2053793;28;20223;-54
2021/05/27 02:59:58;;;;;;;4.60;4.30;;;;;20.60;100244.00;;;;2053152;28;20302;-49
2021/05/27 03:00:58;;;;;;;4.63;4.23;;;;;20.60;100239.00;;;;2049259;28;20589;-48
2021/05/27 03:01:59;;;;;;;4.20;3.80;;;;;20.60;100255.00;;;;2047056;28;20240;-52
2021/05/27 03:02:59;;;;;;;5.13;4.27;;;;;20.60;100247.00;;;;2053468;28;20215;-53
2021/05/27 03:04:00;;;;;;;4.20;3.80;;;;;20.60;100248.00;;;;2053924;28;20220;-54
2021/05/27 03:05:00;;;;;;;4.37;4.00;;;;;20.60;100247.00;;;;2054141;28;20227;-54
2021/05/27 03:06:00;;;;;;;4.83;4.43;;;;;20.60;100253.00;;;;2054139;28;20308;-49
2021/05/27 03:07:01;;;;;;;4.50;4.13;;;;;20.60;100251.00;;;;2051661;28;20231;-53
2021/05/27 03:08:01;;;;;;;5.17;4.63;;;;;20.60;100250.00;;;;2052335;28;20306;-54
2021/05/27 03:09:01;;;;;;;4.30;4.00;;;;;20.60;100245.00;;;;2046138;28;20578;-54
2021/05/27 03:10:03;;;;;;;4.37;4.07;;;;;20.60;100248.00;;;;2046110;28;20308;-54
2021/05/27 03:11:03;;;;;;;5.15;4.72;;;;;20.60;100259.00;;;;2044719;28;20235;-49
2021/05/27 03:12:04;;;;;;;5.00;4.50;;;;;20.60;100255.00;;;;2046158;28;20571;-53
2021/05/27 03:13:05;;;;;;;5.57;4.50;;;;;20.60;100187.00;;;;2036492;28;20216;-54
2021/05/27 03:14:05;;;;;;;5.03;4.53;;;;;20.60;100261.00;;;;2045476;28;20208;-53
2021/05/27 03:15:06;;;;;;;5.03;4.60;;;;;20.60;100258.00;;;;2046037;28;20270;-53
2021/05/27 03:16:06;;;;;;;5.00;4.60;;;;;20.60;100253.00;;;;2046298;28;20209;-54
2021/05/27 03:17:07;;;;;;;4.97;4.57;;;;;20.60;100254.00;;;;2046200;28;20216;-50
2021/05/27 03:18:07;;;;;;;4.90;4.40;;;;;20.60;100255.00;;;;2038248;28;20292;-54
2021/05/27 03:19:08;;;;;;;4.90;4.37;;;;;20.60;100250.00;;;;2047172;28;20220;-53
2021/05/27 03:20:09;;;;;;;5.17;4.33;;;;;20.60;100264.00;;;;2047105;28;20273;-54
2021/05/27 03:21:09;;;;;;;5.77;5.10;;;;;20.60;100262.00;;;;2046918;28;20678;-52
2021/05/27 03:22:09;;;;;;;5.57;4.70;;;;;20.60;100264.00;;;;2045539;28;20448;-52
2021/05/27 03:23:10;;;;;;;5.40;4.90;;;;;20.60;100262.00;;;;2047539;28;20227;-55
2021/05/27 03:24:10;;;;;;;5.30;4.80;;;;;20.60;100254.00;;;;2047384;28;20283;-53
2021/05/27 03:25:11;;;;;;;5.40;4.90;;;;;20.60;100264.00;;;;2046107;29;20212;-49
2021/05/27 03:26:12;;;;;;;4.40;4.00;;;;;20.60;100270.00;;;;2046925;29;20678;-54
2021/05/27 03:27:13;;;;;;;5.13;4.73;;;;;20.60;100270.00;;;;2045064;28;20547;-53
2021/05/27 03:28:14;;;;;;;5.03;4.57;;;;;20.60;100262.00;;;;2047665;28;20225;-54
2021/05/27 03:29:14;;;;;;;5.60;5.20;;;;;20.60;100254.00;;;;2047492;28;20205;-52
2021/05/27 03:30:15;;;;;;;5.80;4.70;;;;;20.60;100268.00;;;;2050475;28;20220;-54
2021/05/27 03:31:15;;;;;;;5.77;5.17;;;;;20.60;100258.00;;;;2048615;28;20232;-52
2021/05/27 03:32:15;;;;;;;5.53;5.03;;;;;20.60;100266.00;;;;2046506;28;20216;-52
2021/05/27 03:33:17;;;;;;;5.70;5.10;;;;;20.60;100259.00;;;;2046285;29;20291;-54
2021/05/27 03:34:17;;;;;;;5.10;4.70;;;;;20.60;100265.00;;;;2046856;28;20213;-49
2021/05/27 03:35:18;;;;;;;5.03;4.63;;;;;20.60;100269.00;;;;2047247;28;20223;-53
2021/05/27 03:36:18;;;;;;;5.90;5.20;;;;;20.60;100267.00;;;;2046840;28;20215;-53
2021/05/27 03:37:18;;;;;;;7.63;5.53;;;;;20.60;100273.00;;;;2044773;28;20693;-54
2021/05/27 03:38:19;;;;;;;5.50;5.00;;;;;20.60;100272.00;;;;2047399;28;20619;-54
2021/05/27 03:39:19;;;;;;;5.80;4.77;;;;;20.60;100269.00;;;;2039108;29;20206;-54
2021/05/27 03:40:19;;;;;;;5.03;4.50;;;;;20.60;100261.00;;;;2038954;29;20213;-51
2021/05/27 03:41:20;;;;;;;5.60;5.10;;;;;20.60;100263.00;;;;2046808;28;20220;-52
2021/05/27 03:42:20;;;;;;;5.23;4.73;;;;;20.60;100270.00;;;;2046663;28;20630;-54
2021/05/27 03:43:20;;;;;;;6.43;5.93;;;;;20.60;100269.00;;;;2053283;28;20223;-54
2021/05/27 03:44:21;;;;;;;5.37;4.77;;;;;20.60;100273.00;;;;2054741;28;20219;-54
2021/05/27 03:45:25;;;;;;;5.23;4.83;;;;;20.60;100268.00;;;;2054974;28;20216;-52
2021/05/27 03:46:26;;;;;;;5.57;5.07;;;;;20.60;100268.00;;;;2054824;28;20254;-52
2021/05/27 03:47:26;;;;;;;5.87;5.13;;;;;20.60;100274.00;;;;2053066;28;20267;-54
2021/05/27 03:48:26;;;;;;;6.40;5.80;;;;;20.60;100266.00;;;;2053283;28;20222;-54
2021/05/27 03:49:27;;;;;;;6.33;5.60;;;;;20.60;100279.00;;;;2052623;28;20208;-53
2021/05/27 03:50:28;;;;;;;6.15;5.55;;;;;20.60;100281.00;;;;2054530;28;20630;-54
2021/05/27 03:51:28;;;;;;;8.02;5.93;;;;;20.60;100274.00;;;;2053453;28;20224;-54
2021/05/27 03:52:28;;;;;;;6.63;5.50;;;;;20.60;100285.00;;;;2052398;28;20216;-53
2021/05/27 03:53:29;;;;;;;7.00;5.07;;;;;20.60;100278.00;;;;2054768;28;20212;-52
2021/05/27 03:54:29;;;;;;;6.23;5.73;;;;;20.60;100294.00;;;;2055279;28;20212;-54
2021/05/27 03:55:29;;;;;;;6.50;5.70;;;;;20.60;100271.00;;;;2051657;28;25837;-54
2021/05/27 03:56:30;;;;;;;6.20;5.70;;;;;20.60;100274.00;;;;2055447;28;20224;-50
2021/05/27 03:57:30;;;;;;;6.57;6.00;;;;;20.50;100267.00;;;;2052789;28;21302;-53
2021/05/27 04:01:08;;;;;;;6.35;5.75;;;;;20.50;100288.00;;;;2046918;28;20221;-51
2021/05/27 04:02:08;;;;;;;6.60;6.00;;;;;20.50;100281.00;;;;2045101;28;20220;-53
2021/05/27 04:03:09;;;;;;;7.67;6.97;;;;;20.50;100285.00;;;;2046800;28;20558;-54
2021/05/27 04:08:05;;;;;;;7.15;6.55;;;;;20.50;100289.00;;;;2055043;28;20223;-54
2021/05/27 04:09:06;;;;;;;7.20;6.50;;;;;20.50;100295.00;;;;2054025;28;20211;-54
2021/05/27 04:10:08;;;;;;;7.00;6.30;;;;;20.50;100288.00;;;;2055147;28;20635;-50
2021/05/27 04:11:09;;;;;;;6.95;6.25;;;;;20.50;100287.00;;;;2054314;28;20234;-53
2021/05/27 04:13:29;;;;;;;7.18;6.28;;;;;20.50;100303.00;;;;2040452;29;20212;-52
2021/05/27 04:14:29;;;;;;;6.87;6.20;;;;;20.50;100217.00;;;;2039969;28;20674;-52
2021/05/27 04:15:33;;;;;;;7.03;6.30;;;;;20.50;100296.00;;;;2045668;28;20903;-54
2021/05/27 04:16:34;;;;;;;6.65;6.10;;;;;20.50;100289.00;;;;2046684;28;20220;-53
2021/05/27 04:17:35;;;;;;;7.30;6.60;;;;;20.50;100296.00;;;;2046751;28;20225;-51
2021/05/27 04:18:35;;;;;;;7.63;6.83;;;;;20.50;100295.00;;;;2047301;28;20449;-53
2021/05/27 04:19:35;;;;;;;6.90;6.20;;;;;20.50;100289.00;;;;2047119;28;20231;-54
2021/05/27 04:20:40;;;;;;;7.03;6.43;;;;;20.50;100298.00;;;;2047377;28;20952;-53
2021/05/27 04:21:41;;;;;;;7.10;6.40;;;;;20.50;100288.00;;;;2046308;28;20705;-49
2021/05/27 04:22:44;;;;;;;6.60;5.97;;;;;20.50;100295.00;;;;2049087;28;20225;-52
2021/05/27 04:23:44;;;;;;;8.63;7.10;;;;;20.50;100301.00;;;;2054874;28;20693;-53
2021/05/27 04:24:45;;;;;;;7.23;6.50;;;;;20.50;100297.00;;;;2055132;28;20223;-49
2021/05/27 04:25:45;;;;;;;7.53;6.87;;;;;20.50;100297.00;;;;2055174;28;20216;-51
2021/05/27 04:26:45;;;;;;;7.93;7.07;;;;;20.50;100300.00;;;;2054919;28;20238;-53
2021/05/27 04:27:46;;;;;;;6.77;6.20;;;;;20.50;100299.00;;;;2052418;28;20216;-53
2021/05/27 04:28:46;;;;;;;7.60;6.90;;;;;20.50;100311.00;;;;2054531;28;20220;-52
2021/05/27 04:29:47;;;;;;;8.67;7.70;;;;;20.50;100309.00;;;;2047429;28;20217;-58
2021/05/27 04:32:06;;;;;;;6.65;5.97;;;;;20.50;100308.00;;;;2048002;28;20239;-53
2021/05/27 04:33:07;;;;;;;7.47;6.80;;;;;20.50;100313.00;;;;2047060;28;20212;-53
2021/05/27 04:34:07;;;;;;;7.83;6.97;;;;;20.50;100308.00;;;;2047132;28;22022;-49
2021/05/27 04:35:08;;;;;;;8.13;7.33;;;;;20.50;100303.00;;;;2047178;28;20268;-52
2021/05/27 04:36:11;;;;;;;8.20;7.40;;;;;20.50;100306.00;;;;2047073;28;20239;-54
2021/05/27 04:37:12;;;;;;;7.43;6.60;;;;;20.50;100315.00;;;;2047109;28;20299;-53
2021/05/27 04:38:14;;;;;;;7.93;6.97;;;;;20.20;100315.00;;;;2046917;29;20240;-53
2021/05/27 04:39:14;;;;;;;7.68;6.97;;;;;20.50;100318.00;;;;2038438;29;20313;-53
2021/05/27 04:40:14;;;;;;;8.23;7.10;;;;;20.50;100310.00;;;;2038621;29;20225;-53
2021/05/27 04:41:15;;;;;;;8.50;7.03;;;;;20.50;100309.00;;;;2041811;29;20674;-53
2021/05/27 04:42:15;;;;;;;7.67;6.97;;;;;20.50;100317.00;;;;2039946;28;20781;-50
2021/05/27 04:43:16;;;;;;;7.37;6.67;;;;;20.50;100317.00;;;;2046753;28;20697;-51
2021/05/27 04:44:17;;;;;;;7.72;6.80;;;;;20.50;100322.00;;;;2047002;28;20352;-53
2021/05/27 04:45:17;;;;;;;8.03;7.33;;;;;20.50;100318.00;;;;2046643;28;20264;-53
2021/05/27 04:46:17;;;;;;;9.20;7.83;;;;;20.50;100326.00;;;;2046987;28;20267;-50
2021/05/27 04:47:18;;;;;;;7.17;6.57;;;;;20.50;100324.00;;;;2047017;28;20749;-54
2021/05/27 04:48:18;;;;;;;7.33;6.63;;;;;20.50;100318.00;;;;2046918;28;20773;-54
2021/05/27 04:49:18;;;;;;;7.50;6.90;;;;;20.50;100317.00;;;;2046928;28;20582;-54
2021/05/27 04:50:19;;;;;;;7.10;6.50;;;;;20.50;100321.00;;;;2046976;28;20217;-54
2021/05/27 04:51:19;;;;;;;7.90;6.60;;;;;20.50;100342.00;;;;2045913;28;20232;-51
2021/05/27 04:52:20;;;;;;;8.30;7.60;;;;;20.50;100322.00;;;;2046760;28;20256;-50
2021/05/27 04:53:21;;;;;;;6.63;6.10;;;;;20.50;100336.00;;;;2046807;28;20585;-53
2021/05/27 04:54:21;;;;;;;7.15;6.45;;;;;20.50;100321.00;;;;2046340;28;20212;-53
2021/05/27 04:55:22;;;;;;;8.50;7.70;;;;;20.50;100323.00;;;;2047096;28;20670;-53
2021/05/27 04:56:22;;;;;;;7.33;6.63;;;;;20.50;100331.00;;;;2038276;29;20710;-51
2021/05/27 04:57:22;;;;;;;7.50;6.80;;;;;20.50;100337.00;;;;2038311;29;20249;-52
2021/05/27 04:58:23;;;;;;;7.53;6.83;;;;;20.50;100334.00;;;;2046950;28;20216;-54
2021/05/27 04:59:23;;;;;;;7.83;7.23;;;;;20.50;100326.00;;;;2046567;28;20224;-54
2021/05/27 05:00:24;;;;;;;7.37;6.70;;;;;20.50;100341.00;;;;2050081;28;20240;-49
2021/05/27 05:01:26;;;;;;;8.30;7.27;;;;;20.50;100343.00;;;;2048486;28;20221;-53
2021/05/27 05:02:26;;;;;;;8.23;7.43;;;;;20.50;100339.00;;;;2049059;28;20621;-52
2021/05/27 05:03:27;;;;;;;7.73;7.03;;;;;20.50;100341.00;;;;2046994;28;20209;-54
2021/05/27 05:04:27;;;;;;;8.33;7.50;;;;;20.40;100336.00;;;;2046695;28;20201;-54
2021/05/27 05:05:28;;;;;;;8.27;7.43;;;;;20.50;100336.00;;;;2046453;28;20744;-54
2021/05/27 05:06:28;;;;;;;8.53;7.43;;;;;20.50;100347.00;;;;2046859;28;20212;-50
2021/05/27 05:07:28;;;;;;;7.70;6.90;;;;;20.40;100348.00;;;;2046541;28;20216;-52
2021/05/27 05:08:29;;;;;;;8.23;7.30;;;;;20.40;100346.00;;;;2046954;28;20300;-53
2021/05/27 05:09:29;;;;;;;7.40;6.80;;;;;20.40;100348.00;;;;2053469;28;20204;-53
2021/05/27 05:10:32;;;;;;;8.70;7.77;;;;;20.40;100354.00;;;;2054779;28;20307;-54
2021/05/27 05:11:32;;;;;;;7.57;6.70;;;;;20.40;100351.00;;;;2053808;28;20395;-50
2021/05/27 05:12:44;;;;;;;7.67;6.93;;;;;20.50;100356.00;;;;2054651;28;20311;-51